Private Wetterstation Sandau
Wetterdaten: Donnerstag, 02.05.2013
Datum Zeit Temp. A. Feuchte A. Luftdruck Regen Wind Richtung Richtung Taupunkt Windchill
02.05.2013 00:01 12,4 C 64 % 1022,7 hPa 0,0 l/m 0,0 km/h (0 Bft) O-SO 112 5,8 C 12,4 C
02.05.2013 00:06 12,4 C 64 % 1022,7 hPa 0,0 l/m 0,0 km/h (0 Bft) O-SO 112 5,8 C 12,4 C
02.05.2013 00:11 12,4 C 64 % 1022,8 hPa 0,0 l/m 0,0 km/h (0 Bft) O-SO 112 5,8 C 12,4 C
02.05.2013 00:16 12,4 C 65 % 1022,8 hPa 0,0 l/m 0,0 km/h (0 Bft) O-SO 112 6,0 C 12,4 C
02.05.2013 00:21 12,4 C 65 % 1022,7 hPa 0,0 l/m 0,0 km/h (0 Bft) O-SO 112 6,0 C 12,4 C
02.05.2013 00:26 12,3 C 65 % 1022,8 hPa 0,0 l/m 1,4 km/h (1 Bft) O-SO 112 5,9 C 12,3 C
02.05.2013 00:31 12,3 C 65 % 1022,9 hPa 0,0 l/m 0,0 km/h (0 Bft) O-NO 67 5,9 C 12,3 C
02.05.2013 00:36 12,2 C 65 % 1023,1 hPa 0,0 l/m 0,0 km/h (0 Bft) O-NO 67 5,8 C 12,2 C
02.05.2013 00:41 12,1 C 65 % 1023,0 hPa 0,0 l/m 2,5 km/h (1 Bft) O-NO 67 5,7 C 12,1 C
02.05.2013 00:46 12,1 C 66 % 1022,7 hPa 0,0 l/m 3,2 km/h (1 Bft) O-NO 67 5,9 C 12,1 C
02.05.2013 00:51 12,0 C 66 % 1022,7 hPa 0,0 l/m 4,7 km/h (1 Bft) NO 45 5,8 C 12,0 C
02.05.2013 00:56 11,9 C 67 % 1022,7 hPa 0,0 l/m 3,6 km/h (1 Bft) NO 45 6,0 C 11,9 C
02.05.2013 01:01 11,8 C 68 % 1022,9 hPa 0,0 l/m 4,3 km/h (1 Bft) NO 45 6,1 C 11,8 C
02.05.2013 01:06 11,8 C 68 % 1022,8 hPa 0,0 l/m 2,5 km/h (1 Bft) O 90 6,1 C 11,8 C
02.05.2013 01:11 11,6 C 68 % 1022,8 hPa 0,0 l/m 2,2 km/h (1 Bft) O 90 5,9 C 11,6 C
02.05.2013 01:16 11,6 C 68 % 1022,8 hPa 0,0 l/m 5,0 km/h (1 Bft) O-NO 67 5,9 C 11,6 C
02.05.2013 01:21 11,5 C 68 % 1022,7 hPa 0,0 l/m 5,0 km/h (1 Bft) N-NO 22 5,8 C 11,5 C
02.05.2013 01:26 11,4 C 69 % 1022,7 hPa 0,0 l/m 4,7 km/h (1 Bft) O-NO 67 5,9 C 11,4 C
02.05.2013 01:31 11,3 C 69 % 1022,9 hPa 0,0 l/m 3,2 km/h (1 Bft) O-NO 67 5,8 C 11,3 C
02.05.2013 01:36 11,1 C 69 % 1022,9 hPa 0,0 l/m 6,5 km/h (2 Bft) O 90 5,6 C 11,1 C
02.05.2013 01:41 10,9 C 69 % 1023,0 hPa 0,0 l/m 2,9 km/h (1 Bft) O 90 5,4 C 10,9 C
02.05.2013 01:46 10,9 C 70 % 1022,9 hPa 0,0 l/m 4,3 km/h (1 Bft) O 90 5,6 C 10,9 C
02.05.2013 01:51 10,7 C 69 % 1022,8 hPa 0,0 l/m 4,0 km/h (1 Bft) O-NO 67 5,2 C 10,7 C
02.05.2013 01:56 10,6 C 69 % 1022,8 hPa 0,0 l/m 2,5 km/h (1 Bft) O-NO 67 5,2 C 10,6 C
02.05.2013 02:01 10,4 C 69 % 1022,5 hPa 0,0 l/m 4,7 km/h (1 Bft) O 90 5,0 C 10,4 C
02.05.2013 02:06 10,4 C 69 % 1022,4 hPa 0,0 l/m 1,8 km/h (1 Bft) O-NO 67 5,0 C 10,4 C
02.05.2013 02:11 10,2 C 69 % 1022,3 hPa 0,0 l/m 0,0 km/h (0 Bft) NO 45 4,8 C 10,2 C
02.05.2013 02:16 10,2 C 69 % 1022,4 hPa 0,0 l/m 3,2 km/h (1 Bft) O-SO 112 4,8 C 10,2 C
02.05.2013 02:21 10,1 C 70 % 1022,4 hPa 0,0 l/m 4,0 km/h (1 Bft) O-NO 67 4,9 C 10,1 C
02.05.2013 02:26 9,9 C 70 % 1022,3 hPa 0,0 l/m 4,7 km/h (1 Bft) O-NO 67 4,7 C 9,7 C
02.05.2013 02:31 9,8 C 71 % 1022,3 hPa 0,0 l/m 2,5 km/h (1 Bft) O-NO 67 4,8 C 9,8 C
02.05.2013 02:36 9,6 C 71 % 1022,5 hPa 0,0 l/m 2,5 km/h (1 Bft) NO 45 4,6 C 9,6 C
02.05.2013 02:41 9,5 C 71 % 1022,3 hPa 0,0 l/m 2,2 km/h (1 Bft) O-NO 67 4,5 C 9,5 C
02.05.2013 02:46 9,4 C 71 % 1022,2 hPa 0,0 l/m 5,0 km/h (1 Bft) NO 45 4,4 C 9,1 C
02.05.2013 02:51 9,3 C 71 % 1022,2 hPa 0,0 l/m 3,6 km/h (1 Bft) O 90 4,3 C 9,3 C
02.05.2013 02:56 9,2 C 70 % 1022,3 hPa 0,0 l/m 2,2 km/h (1 Bft) NO 45 4,0 C 9,2 C
02.05.2013 03:01 9,1 C 70 % 1022,2 hPa 0,0 l/m 3,6 km/h (1 Bft) O-NO 67 3,9 C 9,1 C
02.05.2013 03:06 9,1 C 70 % 1022,2 hPa 0,0 l/m 3,6 km/h (1 Bft) O-NO 67 3,9 C 9,1 C
02.05.2013 03:11 8,9 C 71 % 1022,2 hPa 0,0 l/m 3,6 km/h (1 Bft) O-NO 67 3,9 C 8,9 C
02.05.2013 03:16 8,8 C 71 % 1022,4 hPa 0,0 l/m 2,9 km/h (1 Bft) O-NO 67 3,8 C 8,8 C
02.05.2013 03:21 8,6 C 72 % 1022,3 hPa 0,0 l/m 2,9 km/h (1 Bft) O 90 3,8 C 8,6 C
02.05.2013 03:26 8,5 C 72 % 1022,2 hPa 0,0 l/m 3,6 km/h (1 Bft) O 90 3,7 C 8,5 C
02.05.2013 03:31 8,4 C 72 % 1022,3 hPa 0,0 l/m 1,4 km/h (1 Bft) NO 45 3,7 C 8,4 C
02.05.2013 03:36 8,4 C 72 % 1022,1 hPa 0,0 l/m 4,0 km/h (1 Bft) O 90 3,7 C 8,4 C
02.05.2013 03:41 8,4 C 72 % 1022,1 hPa 0,0 l/m 3,2 km/h (1 Bft) O-NO 67 3,7 C 8,4 C
02.05.2013 03:46 8,3 C 72 % 1021,9 hPa 0,0 l/m 6,8 km/h (2 Bft) O 90 3,6 C 7,3 C
02.05.2013 03:51 8,3 C 72 % 1021,9 hPa 0,0 l/m 4,7 km/h (1 Bft) O 90 3,6 C 7,9 C
02.05.2013 03:56 8,3 C 72 % 1021,6 hPa 0,0 l/m 5,0 km/h (1 Bft) O-NO 67 3,6 C 7,8 C
02.05.2013 04:01 8,2 C 72 % 1021,6 hPa 0,0 l/m 2,5 km/h (1 Bft) O-NO 67 3,5 C 8,2 C
02.05.2013 04:06 8,2 C 72 % 1021,8 hPa 0,0 l/m 4,7 km/h (1 Bft) SO 135 3,5 C 7,8 C
02.05.2013 04:11 8,1 C 72 % 1021,8 hPa 0,0 l/m 3,2 km/h (1 Bft) O-SO 112 3,4 C 8,1 C
02.05.2013 04:16 7,9 C 72 % 1021,9 hPa 0,0 l/m 3,2 km/h (1 Bft) O-SO 112 3,2 C 7,9 C
02.05.2013 04:21 7,9 C 73 % 1021,8 hPa 0,0 l/m 4,7 km/h (1 Bft) O 90 3,4 C 7,5 C
02.05.2013 04:26 7,8 C 73 % 1021,8 hPa 0,0 l/m 2,5 km/h (1 Bft) O 90 3,3 C 7,8 C
02.05.2013 04:31 7,8 C 74 % 1021,6 hPa 0,0 l/m 3,6 km/h (1 Bft) O 90 3,5 C 7,8 C
02.05.2013 04:36 7,7 C 74 % 1021,6 hPa 0,0 l/m 4,0 km/h (1 Bft) O 90 3,4 C 7,7 C
02.05.2013 04:41 7,6 C 74 % 1021,6 hPa 0,0 l/m 3,2 km/h (1 Bft) SO 135 3,3 C 7,6 C
02.05.2013 04:46 7,6 C 75 % 1021,6 hPa 0,0 l/m 3,2 km/h (1 Bft) O-NO 67 3,5 C 7,6 C
02.05.2013 04:51 7,5 C 75 % 1021,5 hPa 0,0 l/m 4,0 km/h (1 Bft) O-SO 112 3,4 C 7,5 C
02.05.2013 04:56 7,5 C 75 % 1021,5 hPa 0,0 l/m 1,8 km/h (1 Bft) O-NO 67 3,4 C 7,5 C
02.05.2013 05:01 7,5 C 75 % 1021,4 hPa 0,0 l/m 3,6 km/h (1 Bft) O-NO 67 3,4 C 7,5 C
02.05.2013 05:06 7,5 C 75 % 1021,4 hPa 0,0 l/m 3,6 km/h (1 Bft) O-NO 67 3,4 C 7,5 C
02.05.2013 05:11 7,4 C 75 % 1021,4 hPa 0,0 l/m 2,5 km/h (1 Bft) O-NO 67 3,3 C 7,4 C
02.05.2013 05:16 7,4 C 75 % 1021,4 hPa 0,0 l/m 2,9 km/h (1 Bft) O-NO 67 3,3 C 7,4 C
02.05.2013 05:21 7,3 C 75 % 1021,4 hPa 0,0 l/m 0,0 km/h (0 Bft) O-NO 67 3,2 C 7,3 C
02.05.2013 05:26 7,3 C 75 % 1021,4 hPa 0,0 l/m 2,9 km/h (1 Bft) NO 45 3,2 C 7,3 C
02.05.2013 05:31 7,3 C 75 % 1021,4 hPa 0,0 l/m 0,0 km/h (0 Bft) NO 45 3,2 C 7,3 C
02.05.2013 05:36 7,2 C 76 % 1021,5 hPa 0,0 l/m 1,4 km/h (1 Bft) SO 135 3,3 C 7,2 C
02.05.2013 05:41 7,2 C 76 % 1021,5 hPa 0,0 l/m 1,8 km/h (1 Bft) SO 135 3,3 C 7,2 C
02.05.2013 05:46 7,2 C 76 % 1021,7 hPa 0,0 l/m 2,9 km/h (1 Bft) O-SO 112 3,3 C 7,2 C
02.05.2013 05:51 7,2 C 76 % 1021,6 hPa 0,0 l/m 3,6 km/h (1 Bft) O 90 3,3 C 7,2 C
02.05.2013 05:56 7,2 C 76 % 1021,5 hPa 0,0 l/m 2,5 km/h (1 Bft) O-SO 112 3,3 C 7,2 C
02.05.2013 06:01 7,2 C 76 % 1021,5 hPa 0,0 l/m 1,8 km/h (1 Bft) O 90 3,3 C 7,2 C
02.05.2013 06:06 7,2 C 76 % 1021,6 hPa 0,0 l/m 0,0 km/h (0 Bft) O 90 3,3 C 7,2 C
02.05.2013 06:11 7,2 C 76 % 1021,4 hPa 0,0 l/m 1,4 km/h (1 Bft) O-SO 112 3,3 C 7,2 C
02.05.2013 06:16 7,3 C 76 % 1021,4 hPa 0,0 l/m 2,2 km/h (1 Bft) O-SO 112 3,4 C 7,3 C
02.05.2013 06:21 7,4 C 76 % 1021,6 hPa 0,0 l/m 2,2 km/h (1 Bft) O-SO 112 3,5 C 7,4 C
02.05.2013 06:26 7,7 C 76 % 1021,5 hPa 0,0 l/m 3,2 km/h (1 Bft) O-NO 67 3,7 C 7,7 C
02.05.2013 06:31 7,8 C 76 % 1021,5 hPa 0,0 l/m 4,0 km/h (1 Bft) NO 45 3,8 C 7,8 C
02.05.2013 06:36 7,9 C 75 % 1021,5 hPa 0,0 l/m 1,4 km/h (1 Bft) O 90 3,7 C 7,9 C
02.05.2013 06:41 8,1 C 75 % 1021,4 hPa 0,0 l/m 3,6 km/h (1 Bft) O-NO 67 3,9 C 8,1 C
02.05.2013 06:46 8,2 C 74 % 1021,5 hPa 0,0 l/m 0,0 km/h (0 Bft) O-SO 112 3,8 C 8,2 C
02.05.2013 06:51 8,3 C 74 % 1021,5 hPa 0,0 l/m 0,0 km/h (0 Bft) NO 45 3,9 C 8,3 C
02.05.2013 06:56 8,4 C 74 % 1021,6 hPa 0,0 l/m 1,4 km/h (1 Bft) NO 45 4,0 C 8,4 C
02.05.2013 07:01 8,5 C 74 % 1021,6 hPa 0,0 l/m 2,2 km/h (1 Bft) NO 45 4,1 C 8,5 C
02.05.2013 07:06 8,6 C 74 % 1021,6 hPa 0,0 l/m 0,0 km/h (0 Bft) NO 45 4,2 C 8,6 C
02.05.2013 07:11 8,8 C 74 % 1021,7 hPa 0,0 l/m 0,0 km/h (0 Bft) NO 45 4,4 C 8,8 C
02.05.2013 07:16 8,8 C 74 % 1021,6 hPa 0,0 l/m 2,9 km/h (1 Bft) N-NO 22 4,4 C 8,8 C
02.05.2013 07:21 8,9 C 74 % 1021,5 hPa 0,0 l/m 0,0 km/h (0 Bft) N-NO 22 4,5 C 8,9 C
02.05.2013 07:26 9,1 C 74 % 1021,5 hPa 0,0 l/m 2,9 km/h (1 Bft) NO 45 4,7 C 9,1 C
02.05.2013 07:31 9,2 C 73 % 1021,5 hPa 0,0 l/m 7,9 km/h (2 Bft) O-NO 67 4,6 C 8,1 C
02.05.2013 07:36 9,3 C 73 % 1021,5 hPa 0,0 l/m 2,2 km/h (1 Bft) O-NO 67 4,7 C 9,3 C
02.05.2013 07:41 9,3 C 73 % 1021,6 hPa 0,0 l/m 5,0 km/h (1 Bft) O-NO 67 4,7 C 9,0 C
02.05.2013 07:46 9,5 C 73 % 1021,7 hPa 0,0 l/m 3,6 km/h (1 Bft) O-NO 67 4,9 C 9,5 C
02.05.2013 07:51 9,6 C 73 % 1021,6 hPa 0,0 l/m 0,0 km/h (0 Bft) O 90 5,0 C 9,6 C
02.05.2013 07:56 9,7 C 73 % 1021,8 hPa 0,0 l/m 2,2 km/h (1 Bft) O-NO 67 5,1 C 9,7 C
02.05.2013 08:01 9,8 C 73 % 1021,8 hPa 0,0 l/m 1,4 km/h (1 Bft) N-NO 22 5,2 C 9,8 C
02.05.2013 08:06 9,9 C 73 % 1021,7 hPa 0,0 l/m 1,8 km/h (1 Bft) N-NO 22 5,3 C 9,9 C
02.05.2013 08:11 9,9 C 73 % 1021,7 hPa 0,0 l/m 1,8 km/h (1 Bft) O 90 5,3 C 9,9 C
02.05.2013 08:16 10,1 C 73 % 1021,9 hPa 0,0 l/m 0,0 km/h (0 Bft) O-NO 67 5,5 C 10,1 C
02.05.2013 08:21 10,1 C 73 % 1022,1 hPa 0,0 l/m 0,0 km/h (0 Bft) O-SO 112 5,5 C 10,1 C
02.05.2013 08:26 10,2 C 72 % 1022,2 hPa 0,0 l/m 0,0 km/h (0 Bft) O 90 5,4 C 10,2 C
02.05.2013 08:31 10,3 C 72 % 1022,1 hPa 0,0 l/m 3,2 km/h (1 Bft) O 90 5,5 C 10,3 C
02.05.2013 08:36 10,3 C 72 % 1022,2 hPa 0,0 l/m 3,6 km/h (1 Bft) O-NO 67 5,5 C 10,3 C
02.05.2013 08:41 10,4 C 71 % 1022,4 hPa 0,0 l/m 3,6 km/h (1 Bft) NO 45 5,4 C 10,4 C
02.05.2013 08:46 10,5 C 71 % 1022,4 hPa 0,0 l/m 4,7 km/h (1 Bft) NO 45 5,5 C 10,5 C
02.05.2013 08:51 10,5 C 70 % 1022,4 hPa 0,0 l/m 2,5 km/h (1 Bft) NO 45 5,3 C 10,5 C
02.05.2013 08:56 10,6 C 69 % 1022,2 hPa 0,0 l/m 4,0 km/h (1 Bft) O-NO 67 5,2 C 10,6 C
02.05.2013 09:01 10,7 C 69 % 1022,2 hPa 0,0 l/m 2,2 km/h (1 Bft) NO 45 5,2 C 10,7 C
02.05.2013 09:06 10,8 C 69 % 1022,3 hPa 0,0 l/m 3,6 km/h (1 Bft) NO 45 5,3 C 10,8 C
02.05.2013 09:11 10,9 C 69 % 1022,2 hPa 0,0 l/m 3,2 km/h (1 Bft) O-NO 67 5,4 C 10,9 C
02.05.2013 09:16 10,9 C 68 % 1022,3 hPa 0,0 l/m 0,0 km/h (0 Bft) N-NO 22 5,2 C 10,9 C
02.05.2013 09:21 11,0 C 67 % 1022,3 hPa 0,0 l/m 3,2 km/h (1 Bft) O 90 5,1 C 11,0 C
02.05.2013 09:26 11,2 C 67 % 1022,4 hPa 0,0 l/m 4,7 km/h (1 Bft) NO 45 5,3 C 11,2 C
02.05.2013 09:31 11,3 C 67 % 1022,5 hPa 0,0 l/m 2,9 km/h (1 Bft) NO 45 5,4 C 11,3 C
02.05.2013 09:36 11,3 C 67 % 1022,5 hPa 0,0 l/m 5,0 km/h (1 Bft) N-NO 22 5,4 C 11,3 C
02.05.2013 09:41 11,4 C 67 % 1022,3 hPa 0,0 l/m 2,2 km/h (1 Bft) O-NO 67 5,5 C 11,4 C
02.05.2013 09:46 11,6 C 67 % 1022,4 hPa 0,0 l/m 0,0 km/h (0 Bft) O-SO 112 5,7 C 11,6 C
02.05.2013 09:51 11,6 C 67 % 1022,5 hPa 0,0 l/m 6,1 km/h (2 Bft) O-NO 67 5,7 C 11,6 C
02.05.2013 09:56 11,8 C 67 % 1022,4 hPa 0,0 l/m 4,7 km/h (1 Bft) O-NO 67 5,9 C 11,8 C
02.05.2013 10:01 11,8 C 66 % 1022,3 hPa 0,0 l/m 5,8 km/h (2 Bft) O-NO 67 5,7 C 11,8 C
02.05.2013 10:06 11,9 C 66 % 1022,2 hPa 0,0 l/m 6,8 km/h (2 Bft) O-NO 67 5,8 C 11,9 C
02.05.2013 10:11 12,1 C 65 % 1022,2 hPa 0,0 l/m 5,0 km/h (1 Bft) O-NO 67 5,7 C 12,1 C
02.05.2013 10:16 12,2 C 64 % 1022,3 hPa 0,0 l/m 3,2 km/h (1 Bft) O 90 5,6 C 12,2 C
02.05.2013 10:21 12,4 C 64 % 1022,3 hPa 0,0 l/m 3,6 km/h (1 Bft) O-NO 67 5,8 C 12,4 C
02.05.2013 10:26 12,6 C 64 % 1022,4 hPa 0,0 l/m 0,0 km/h (0 Bft) NO 45 6,0 C 12,6 C
02.05.2013 10:31 12,9 C 64 % 1022,4 hPa 0,0 l/m 1,4 km/h (1 Bft) NO 45 6,3 C 12,9 C
02.05.2013 10:36 13,1 C 63 % 1022,3 hPa 0,0 l/m 7,2 km/h (2 Bft) NO 45 6,2 C 13,1 C
02.05.2013 10:41 13,2 C 62 % 1022,3 hPa 0,0 l/m 8,6 km/h (2 Bft) NO 45 6,1 C 13,2 C
02.05.2013 10:46 13,4 C 62 % 1022,3 hPa 0,0 l/m 3,6 km/h (1 Bft) NO 45 6,3 C 13,4 C
02.05.2013 10:51 13,8 C 61 % 1022,3 hPa 0,0 l/m 3,2 km/h (1 Bft) O-SO 112 6,4 C 13,8 C
02.05.2013 10:56 14,1 C 60 % 1022,4 hPa 0,0 l/m 6,5 km/h (2 Bft) NO 45 6,5 C 14,1 C
02.05.2013 11:01 14,3 C 59 % 1022,5 hPa 0,0 l/m 9,0 km/h (2 Bft) O-NO 67 6,4 C 14,3 C
02.05.2013 11:06 14,3 C 59 % 1022,6 hPa 0,0 l/m 6,8 km/h (2 Bft) O-NO 67 6,4 C 14,3 C
02.05.2013 11:11 14,3 C 58 % 1022,5 hPa 0,0 l/m 5,0 km/h (1 Bft) NO 45 6,2 C 14,3 C
02.05.2013 11:16 14,2 C 58 % 1022,7 hPa 0,0 l/m 3,2 km/h (1 Bft) O-NO 67 6,1 C 14,2 C
02.05.2013 11:21 14,2 C 58 % 1022,5 hPa 0,0 l/m 6,1 km/h (2 Bft) O-NO 67 6,1 C 14,2 C
02.05.2013 11:26 14,1 C 58 % 1022,6 hPa 0,0 l/m 3,2 km/h (1 Bft) O-NO 67 6,0 C 14,1 C
02.05.2013 11:31 13,9 C 58 % 1022,6 hPa 0,0 l/m 6,8 km/h (2 Bft) O-NO 67 5,8 C 13,9 C
02.05.2013 11:36 13,9 C 58 % 1022,6 hPa 0,0 l/m 0,0 km/h (0 Bft) O 90 5,8 C 13,9 C
02.05.2013 11:41 13,9 C 58 % 1022,8 hPa 0,0 l/m 1,4 km/h (1 Bft) O-NO 67 5,8 C 13,9 C
02.05.2013 11:46 13,9 C 59 % 1022,7 hPa 0,0 l/m 6,1 km/h (2 Bft) O-NO 67 6,0 C 13,9 C
02.05.2013 11:51 14,1 C 58 % 1022,7 hPa 0,0 l/m 3,6 km/h (1 Bft) N 360 6,0 C 14,1 C
02.05.2013 11:56 14,1 C 58 % 1022,7 hPa 0,0 l/m 4,7 km/h (1 Bft) O-NO 67 6,0 C 14,1 C
02.05.2013 12:01 14,1 C 59 % 1022,6 hPa 0,0 l/m 2,9 km/h (1 Bft) N 360 6,2 C 14,1 C
02.05.2013 12:06 14,3 C 59 % 1022,6 hPa 0,0 l/m 5,8 km/h (2 Bft) O-NO 67 6,4 C 14,3 C
02.05.2013 12:11 14,5 C 58 % 1022,6 hPa 0,0 l/m 10,4 km/h (2 Bft) NO 45 6,3 C 14,5 C
02.05.2013 12:16 14,6 C 58 % 1022,6 hPa 0,0 l/m 8,6 km/h (2 Bft) O 90 6,4 C 14,6 C
02.05.2013 12:21 14,9 C 58 % 1022,3 hPa 0,0 l/m 2,9 km/h (1 Bft) O-NO 67 6,7 C 14,9 C
02.05.2013 12:26 15,3 C 57 % 1022,3 hPa 0,0 l/m 7,2 km/h (2 Bft) O-NO 67 6,8 C 15,3 C
02.05.2013 12:31 15,4 C 56 % 1022,3 hPa 0,0 l/m 4,3 km/h (1 Bft) N 360 6,7 C 15,4 C
02.05.2013 12:36 15,6 C 56 % 1022,3 hPa 0,0 l/m 3,2 km/h (1 Bft) SO 135 6,9 C 15,6 C
02.05.2013 12:41 15,9 C 56 % 1022,5 hPa 0,0 l/m 5,8 km/h (2 Bft) O-SO 112 7,1 C 15,9 C
02.05.2013 12:46 16,0 C 56 % 1022,4 hPa 0,0 l/m 3,6 km/h (1 Bft) O 90 7,2 C 16,0 C
02.05.2013 12:51 16,1 C 55 % 1022,4 hPa 0,0 l/m 4,0 km/h (1 Bft) NO 45 7,1 C 16,1 C
02.05.2013 12:56 16,1 C 55 % 1022,4 hPa 0,0 l/m 6,8 km/h (2 Bft) O 90 7,1 C 16,1 C
02.05.2013 13:01 16,3 C 55 % 1022,4 hPa 0,0 l/m 4,0 km/h (1 Bft) N-NO 22 7,2 C 16,3 C
02.05.2013 13:06 16,4 C 55 % 1022,2 hPa 0,0 l/m 5,0 km/h (1 Bft) O-NO 67 7,3 C 16,4 C
02.05.2013 13:11 16,6 C 54 % 1022,3 hPa 0,0 l/m 5,4 km/h (1 Bft) O-SO 112 7,3 C 16,6 C
02.05.2013 13:16 16,8 C 53 % 1022,1 hPa 0,0 l/m 9,7 km/h (2 Bft) O-NO 67 7,2 C 16,8 C
02.05.2013 13:21 16,9 C 53 % 1022,1 hPa 0,0 l/m 0,0 km/h (0 Bft) O-SO 112 7,3 C 16,9 C
02.05.2013 13:26 17,2 C 53 % 1022,1 hPa 0,0 l/m 4,3 km/h (1 Bft) O 90 7,5 C 17,2 C
02.05.2013 13:31 17,3 C 52 % 1022,2 hPa 0,0 l/m 4,3 km/h (1 Bft) O-SO 112 7,3 C 17,3 C
02.05.2013 13:36 17,5 C 51 % 1022,1 hPa 0,0 l/m 8,6 km/h (2 Bft) O-NO 67 7,3 C 17,5 C
02.05.2013 13:41 17,8 C 51 % 1022,1 hPa 0,0 l/m 5,8 km/h (2 Bft) O-NO 67 7,5 C 17,8 C
02.05.2013 13:46 17,6 C 50 % 1022,1 hPa 0,0 l/m 6,1 km/h (2 Bft) O-SO 112 7,1 C 17,6 C
02.05.2013 13:51 17,5 C 50 % 1022,1 hPa 0,0 l/m 5,8 km/h (2 Bft) S-SO 157 7,0 C 17,5 C
02.05.2013 13:56 17,4 C 50 % 1022,1 hPa 0,0 l/m 7,9 km/h (2 Bft) O-SO 112 6,9 C 17,4 C
02.05.2013 14:01 17,3 C 51 % 1022,1 hPa 0,0 l/m 4,7 km/h (1 Bft) O-SO 112 7,1 C 17,3 C
02.05.2013 14:06 17,3 C 51 % 1022,2 hPa 0,0 l/m 7,9 km/h (2 Bft) O-NO 67 7,1 C 17,3 C
02.05.2013 14:11 17,2 C 50 % 1022,1 hPa 0,0 l/m 5,0 km/h (1 Bft) O-NO 67 6,7 C 17,2 C
02.05.2013 14:16 17,1 C 49 % 1022,1 hPa 0,0 l/m 7,9 km/h (2 Bft) NO 45 6,3 C 17,1 C
02.05.2013 14:21 16,9 C 50 % 1022,1 hPa 0,0 l/m 8,3 km/h (2 Bft) NO 45 6,4 C 16,9 C
02.05.2013 14:26 17,1 C 50 % 1022,1 hPa 0,0 l/m 1,8 km/h (1 Bft) NO 45 6,6 C 17,1 C
02.05.2013 14:31 17,2 C 49 % 1022,1 hPa 0,0 l/m 7,2 km/h (2 Bft) O-NO 67 6,4 C 17,2 C
02.05.2013 14:36 17,3 C 49 % 1022,1 hPa 0,0 l/m 4,7 km/h (1 Bft) NO 45 6,5 C 17,3 C
02.05.2013 14:41 17,2 C 49 % 1022,0 hPa 0,0 l/m 3,2 km/h (1 Bft) NO 45 6,4 C 17,2 C
02.05.2013 14:46 17,3 C 48 % 1021,9 hPa 0,0 l/m 4,7 km/h (1 Bft) N-NO 22 6,2 C 17,3 C
02.05.2013 14:51 17,3 C 48 % 1022,0 hPa 0,0 l/m 9,7 km/h (2 Bft) O-NO 67 6,2 C 17,3 C
02.05.2013 14:56 17,4 C 49 % 1021,9 hPa 0,0 l/m 5,8 km/h (2 Bft) O-SO 112 6,6 C 17,4 C
02.05.2013 15:01 17,4 C 48 % 1022,0 hPa 0,0 l/m 11,9 km/h (2 Bft) O-NO 67 6,3 C 17,4 C
02.05.2013 15:06 17,2 C 49 % 1021,9 hPa 0,0 l/m 4,3 km/h (1 Bft) O-NO 67 6,4 C 17,2 C
02.05.2013 15:11 17,1 C 48 % 1021,9 hPa 0,0 l/m 6,5 km/h (2 Bft) NO 45 6,0 C 17,1 C
02.05.2013 15:16 17,0 C 49 % 1021,8 hPa 0,0 l/m 5,4 km/h (1 Bft) O 90 6,2 C 17,0 C
02.05.2013 15:21 16,9 C 49 % 1021,8 hPa 0,0 l/m 5,0 km/h (1 Bft) NO 45 6,1 C 16,9 C
02.05.2013 15:26 17,0 C 49 % 1021,7 hPa 0,0 l/m 16,6 km/h (3 Bft) O-NO 67 6,2 C 17,0 C
02.05.2013 15:31 16,9 C 48 % 1021,6 hPa 0,0 l/m 4,3 km/h (1 Bft) NO 45 5,8 C 16,9 C
02.05.2013 15:36 16,9 C 48 % 1021,6 hPa 0,0 l/m 11,5 km/h (2 Bft) NO 45 5,8 C 16,9 C
02.05.2013 15:41 16,8 C 48 % 1021,6 hPa 0,0 l/m 7,2 km/h (2 Bft) NO 45 5,7 C 16,8 C
02.05.2013 15:46 16,8 C 49 % 1021,6 hPa 0,0 l/m 3,2 km/h (1 Bft) NO 45 6,0 C 16,8 C
02.05.2013 15:51 16,9 C 49 % 1021,6 hPa 0,0 l/m 4,7 km/h (1 Bft) NO 45 6,1 C 16,9 C
02.05.2013 15:56 16,9 C 49 % 1021,6 hPa 0,0 l/m 5,0 km/h (1 Bft) O-NO 67 6,1 C 16,9 C
02.05.2013 16:01 16,9 C 49 % 1021,7 hPa 0,0 l/m 7,2 km/h (2 Bft) O-NO 67 6,1 C 16,9 C
02.05.2013 16:06 16,6 C 50 % 1021,5 hPa 0,0 l/m 4,7 km/h (1 Bft) O-NO 67 6,1 C 16,6 C
02.05.2013 16:11 16,5 C 50 % 1021,5 hPa 0,0 l/m 7,2 km/h (2 Bft) NO 45 6,0 C 16,5 C
02.05.2013 16:16 16,4 C 51 % 1021,5 hPa 0,0 l/m 10,4 km/h (2 Bft) O-NO 67 6,2 C 16,4 C
02.05.2013 16:21 16,5 C 52 % 1021,4 hPa 0,0 l/m 17,3 km/h (3 Bft) O-NO 67 6,6 C 16,5 C
02.05.2013 16:26 16,6 C 52 % 1021,4 hPa 0,0 l/m 13,3 km/h (3 Bft) O-NO 67 6,7 C 16,6 C
02.05.2013 16:31 16,6 C 52 % 1021,2 hPa 0,0 l/m 11,5 km/h (2 Bft) O-NO 67 6,7 C 16,6 C
02.05.2013 16:36 16,7 C 52 % 1021,4 hPa 0,0 l/m 5,4 km/h (1 Bft) O-NO 67 6,8 C 16,7 C
02.05.2013 16:41 16,7 C 52 % 1021,5 hPa 0,0 l/m 4,0 km/h (1 Bft) O-SO 112 6,8 C 16,7 C
02.05.2013 16:46 16,7 C 53 % 1021,4 hPa 0,0 l/m 4,0 km/h (1 Bft) NO 45 7,1 C 16,7 C
02.05.2013 16:51 16,6 C 53 % 1021,4 hPa 0,0 l/m 7,2 km/h (2 Bft) O-SO 112 7,0 C 16,6 C
02.05.2013 16:56 16,6 C 53 % 1021,3 hPa 0,0 l/m 6,5 km/h (2 Bft) O 90 7,0 C 16,6 C
02.05.2013 17:01 16,5 C 54 % 1021,4 hPa 0,0 l/m 4,7 km/h (1 Bft) O-NO 67 7,2 C 16,5 C
02.05.2013 17:06 16,5 C 54 % 1021,3 hPa 0,0 l/m 8,6 km/h (2 Bft) O-SO 112 7,2 C 16,5 C
02.05.2013 17:11 16,4 C 54 % 1021,4 hPa 0,0 l/m 5,4 km/h (1 Bft) O 90 7,1 C 16,4 C
02.05.2013 17:16 16,3 C 55 % 1021,5 hPa 0,0 l/m 7,6 km/h (2 Bft) NO 45 7,2 C 16,3 C
02.05.2013 17:21 16,1 C 55 % 1021,5 hPa 0,0 l/m 6,1 km/h (2 Bft) O 90 7,1 C 16,1 C
02.05.2013 17:26 15,9 C 55 % 1021,4 hPa 0,0 l/m 4,0 km/h (1 Bft) O-NO 67 6,9 C 15,9 C
02.05.2013 17:31 15,8 C 55 % 1021,3 hPa 0,0 l/m 1,1 km/h (1 Bft) SO 135 6,8 C 15,8 C
02.05.2013 17:36 15,8 C 55 % 1021,3 hPa 0,0 l/m 5,8 km/h (2 Bft) O-NO 67 6,8 C 15,8 C
02.05.2013 17:41 15,8 C 54 % 1021,3 hPa 0,0 l/m 9,0 km/h (2 Bft) O-NO 67 6,5 C 15,8 C
02.05.2013 17:46 15,6 C 54 % 1021,3 hPa 0,0 l/m 3,6 km/h (1 Bft) NO 45 6,3 C 15,6 C
02.05.2013 17:51 15,6 C 54 % 1021,1 hPa 0,0 l/m 3,2 km/h (1 Bft) O-SO 112 6,3 C 15,6 C
02.05.2013 17:56 15,6 C 55 % 1021,4 hPa 0,0 l/m 4,7 km/h (1 Bft) NO 45 6,6 C 15,6 C
02.05.2013 18:01 15,5 C 55 % 1021,3 hPa 0,0 l/m 4,3 km/h (1 Bft) N-NO 22 6,5 C 15,5 C
02.05.2013 18:06 15,5 C 55 % 1021,4 hPa 0,0 l/m 2,9 km/h (1 Bft) NO 45 6,5 C 15,5 C
02.05.2013 18:11 15,5 C 54 % 1021,2 hPa 0,0 l/m 4,7 km/h (1 Bft) O-NO 67 6,2 C 15,5 C
02.05.2013 18:16 15,4 C 53 % 1021,1 hPa 0,0 l/m 7,6 km/h (2 Bft) NO 45 5,9 C 15,4 C
02.05.2013 18:21 15,4 C 53 % 1021,2 hPa 0,0 l/m 0,0 km/h (0 Bft) NO 45 5,9 C 15,4 C
02.05.2013 18:26 15,5 C 53 % 1021,2 hPa 0,0 l/m 3,2 km/h (1 Bft) O-NO 67 6,0 C 15,5 C
02.05.2013 18:31 15,5 C 52 % 1021,2 hPa 0,0 l/m 4,7 km/h (1 Bft) NO 45 5,7 C 15,5 C
02.05.2013 18:36 15,4 C 52 % 1021,2 hPa 0,0 l/m 3,6 km/h (1 Bft) O-NO 67 5,6 C 15,4 C
02.05.2013 18:41 15,4 C 51 % 1021,3 hPa 0,0 l/m 3,6 km/h (1 Bft) O-NO 67 5,3 C 15,4 C
02.05.2013 18:46 15,3 C 50 % 1021,4 hPa 0,0 l/m 7,6 km/h (2 Bft) O-NO 67 4,9 C 15,3 C
02.05.2013 18:51 15,3 C 50 % 1021,4 hPa 0,0 l/m 10,4 km/h (2 Bft) O-NO 67 4,9 C 15,3 C
02.05.2013 18:56 15,2 C 49 % 1021,4 hPa 0,0 l/m 9,0 km/h (2 Bft) NO 45 4,6 C 15,2 C
02.05.2013 19:01 15,0 C 48 % 1021,4 hPa 0,0 l/m 9,0 km/h (2 Bft) NO 45 4,1 C 15,0 C
02.05.2013 19:06 14,9 C 46 % 1021,4 hPa 0,0 l/m 7,9 km/h (2 Bft) NO 45 3,4 C 14,9 C
02.05.2013 19:11 14,9 C 47 % 1021,5 hPa 0,0 l/m 6,1 km/h (2 Bft) O-NO 67 3,7 C 14,9 C
02.05.2013 19:16 14,9 C 47 % 1021,3 hPa 0,0 l/m 9,4 km/h (2 Bft) NO 45 3,7 C 14,9 C
02.05.2013 19:21 14,9 C 47 % 1021,3 hPa 0,0 l/m 7,2 km/h (2 Bft) NO 45 3,7 C 14,9 C
02.05.2013 19:26 14,9 C 46 % 1021,4 hPa 0,0 l/m 11,2 km/h (2 Bft) O-NO 67 3,4 C 14,9 C
02.05.2013 19:31 14,8 C 45 % 1021,7 hPa 0,0 l/m 14,8 km/h (3 Bft) NO 45 3,0 C 14,8 C
02.05.2013 19:36 14,7 C 45 % 1021,6 hPa 0,0 l/m 7,2 km/h (2 Bft) NO 45 2,9 C 14,7 C
02.05.2013 19:41 14,6 C 45 % 1021,6 hPa 0,0 l/m 4,0 km/h (1 Bft) NO 45 2,8 C 14,6 C
02.05.2013 19:46 14,5 C 45 % 1021,6 hPa 0,0 l/m 10,8 km/h (2 Bft) NO 45 2,7 C 14,5 C
02.05.2013 19:51 14,4 C 45 % 1021,7 hPa 0,0 l/m 8,6 km/h (2 Bft) O-NO 67 2,6 C 14,4 C
02.05.2013 19:56 14,4 C 45 % 1021,7 hPa 0,0 l/m 7,6 km/h (2 Bft) O-NO 67 2,6 C 14,4 C
02.05.2013 20:01 14,3 C 44 % 1021,6 hPa 0,0 l/m 6,8 km/h (2 Bft) NO 45 2,2 C 14,3 C
02.05.2013 20:06 14,2 C 43 % 1021,6 hPa 0,0 l/m 9,0 km/h (2 Bft) O-NO 67 1,8 C 14,2 C
02.05.2013 20:11 14,2 C 42 % 1021,8 hPa 0,0 l/m 7,2 km/h (2 Bft) O-NO 67 1,5 C 14,2 C
02.05.2013 20:16 14,1 C 42 % 1021,8 hPa 0,0 l/m 5,4 km/h (1 Bft) O-NO 67 1,4 C 14,1 C
02.05.2013 20:21 14,0 C 43 % 1022,0 hPa 0,0 l/m 12,6 km/h (3 Bft) O 90 1,6 C 14,0 C
02.05.2013 20:26 13,9 C 42 % 1022,1 hPa 0,0 l/m 9,0 km/h (2 Bft) O-NO 67 1,2 C 13,9 C
02.05.2013 20:31 13,9 C 42 % 1022,1 hPa 0,0 l/m 8,6 km/h (2 Bft) O 90 1,2 C 13,9 C
02.05.2013 20:36 13,8 C 42 % 1022,1 hPa 0,0 l/m 4,0 km/h (1 Bft) NO 45 1,1 C 13,8 C
02.05.2013 20:41 13,7 C 43 % 1022,0 hPa 0,0 l/m 6,5 km/h (2 Bft) NO 45 1,4 C 13,7 C
02.05.2013 20:46 13,6 C 44 % 1022,1 hPa 0,0 l/m 8,3 km/h (2 Bft) O 90 1,6 C 13,6 C
02.05.2013 20:51 13,6 C 44 % 1022,1 hPa 0,0 l/m 5,0 km/h (1 Bft) NO 45 1,6 C 13,6 C
02.05.2013 20:56 13,4 C 44 % 1022,1 hPa 0,0 l/m 11,5 km/h (2 Bft) NO 45 1,4 C 13,4 C
02.05.2013 21:01 13,3 C 43 % 1022,1 hPa 0,0 l/m 9,7 km/h (2 Bft) O-NO 67 1,0 C 13,3 C
02.05.2013 21:06 13,3 C 43 % 1022,0 hPa 0,0 l/m 10,8 km/h (2 Bft) O 90 1,0 C 13,3 C
02.05.2013 21:11 13,2 C 42 % 1022,1 hPa 0,0 l/m 9,0 km/h (2 Bft) O-NO 67 0,6 C 13,2 C
02.05.2013 21:16 13,1 C 43 % 1022,1 hPa 0,0 l/m 5,8 km/h (2 Bft) O-NO 67 0,8 C 13,1 C
02.05.2013 21:21 13,1 C 43 % 1022,1 hPa 0,0 l/m 14,0 km/h (3 Bft) O-NO 67 0,8 C 13,1 C
02.05.2013 21:26 12,9 C 43 % 1022,2 hPa 0,0 l/m 13,7 km/h (3 Bft) O-NO 67 0,6 C 12,9 C
02.05.2013 21:31 12,9 C 43 % 1022,2 hPa 0,0 l/m 11,9 km/h (2 Bft) O-NO 67 0,6 C 12,9 C
02.05.2013 21:36 12,8 C 42 % 1022,2 hPa 0,0 l/m 9,4 km/h (2 Bft) O-NO 67 0,2 C 12,8 C
02.05.2013 21:41 12,7 C 42 % 1022,2 hPa 0,0 l/m 12,2 km/h (2 Bft) O-NO 67 0,1 C 12,7 C
02.05.2013 21:46 12,6 C 42 % 1022,1 hPa 0,0 l/m 16,6 km/h (3 Bft) O-NO 67 0,0 C 12,6 C
02.05.2013 21:51 12,5 C 42 % 1022,2 hPa 0,0 l/m 9,0 km/h (2 Bft) NO 45 -0,1 C 12,5 C
02.05.2013 21:56 12,4 C 41 % 1022,3 hPa 0,0 l/m 14,8 km/h (3 Bft) NO 45 -0,5 C 12,4 C
02.05.2013 22:01 12,4 C 41 % 1022,4 hPa 0,0 l/m 14,4 km/h (3 Bft) O-SO 112 -0,5 C 12,4 C
02.05.2013 22:06 12,4 C 41 % 1022,4 hPa 0,0 l/m 10,4 km/h (2 Bft) NO 45 -0,5 C 12,4 C
02.05.2013 22:11 12,3 C 41 % 1022,5 hPa 0,0 l/m 9,7 km/h (2 Bft) O 90 -0,6 C 12,3 C
02.05.2013 22:16 12,3 C 41 % 1022,5 hPa 0,0 l/m 5,8 km/h (2 Bft) O-NO 67 -0,6 C 12,3 C
02.05.2013 22:21 12,2 C 42 % 1022,4 hPa 0,0 l/m 3,6 km/h (1 Bft) O-NO 67 -0,3 C 12,2 C
02.05.2013 22:26 12,2 C 42 % 1022,4 hPa 0,0 l/m 7,9 km/h (2 Bft) O-NO 67 -0,3 C 12,2 C
02.05.2013 22:31 12,1 C 42 % 1022,3 hPa 0,0 l/m 9,4 km/h (2 Bft) NO 45 -0,4 C 12,1 C
02.05.2013 22:36 12,1 C 43 % 1022,4 hPa 0,0 l/m 6,1 km/h (2 Bft) NO 45 -0,1 C 12,1 C
02.05.2013 22:41 11,9 C 43 % 1022,4 hPa 0,0 l/m 8,3 km/h (2 Bft) O 90 -0,3 C 11,9 C
02.05.2013 22:46 11,9 C 43 % 1022,2 hPa 0,0 l/m 11,2 km/h (2 Bft) O-SO 112 -0,3 C 11,9 C
02.05.2013 22:51 11,9 C 42 % 1022,2 hPa 0,0 l/m 14,4 km/h (3 Bft) NO 45 -0,6 C 11,9 C
02.05.2013 22:56 11,8 C 41 % 1022,2 hPa 0,0 l/m 7,6 km/h (2 Bft) O-NO 67 -1,0 C 11,8 C
02.05.2013 23:01 11,8 C 42 % 1022,1 hPa 0,0 l/m 7,9 km/h (2 Bft) NO 45 -0,7 C 11,8 C
02.05.2013 23:06 11,8 C 42 % 1022,0 hPa 0,0 l/m 18,4 km/h (3 Bft) O-NO 67 -0,7 C 11,8 C
02.05.2013 23:11 11,7 C 42 % 1022,0 hPa 0,0 l/m 10,1 km/h (2 Bft) O-NO 67 -0,8 C 11,7 C
02.05.2013 23:16 11,6 C 42 % 1022,1 hPa 0,0 l/m 3,6 km/h (1 Bft) NO 45 -0,9 C 11,6 C
02.05.2013 23:21 11,6 C 42 % 1022,1 hPa 0,0 l/m 7,9 km/h (2 Bft) O-NO 67 -0,9 C 11,6 C
02.05.2013 23:26 11,5 C 42 % 1022,2 hPa 0,0 l/m 6,5 km/h (2 Bft) NO 45 -1,0 C 11,5 C
02.05.2013 23:31 11,4 C 42 % 1022,1 hPa 0,0 l/m 5,8 km/h (2 Bft) O-NO 67 -1,0 C 11,4 C
02.05.2013 23:36 11,4 C 41 % 1022,2 hPa 0,0 l/m 8,3 km/h (2 Bft) O-NO 67 -1,4 C 11,4 C
02.05.2013 23:41 11,3 C 41 % 1022,1 hPa 0,0 l/m 8,3 km/h (2 Bft) O-NO 67 -1,5 C 11,3 C
02.05.2013 23:46 11,3 C 41 % 1022,1 hPa 0,0 l/m 11,5 km/h (2 Bft) NO 45 -1,5 C 11,3 C
02.05.2013 23:51 11,2 C 41 % 1021,9 hPa 0,0 l/m 6,1 km/h (2 Bft) O-NO 67 -1,6 C 11,2 C
02.05.2013 23:56 11,2 C 41 % 1022,1 hPa 0,0 l/m 4,0 km/h (1 Bft) O-NO 67 -1,6 C 11,2 C
_ Min-Zeit 05:36 21:56 17:51 - 00:01 - - 23:51 05:36
Minimum _ 7,2 C 41 % 1021,1 hPa - 0,0 km/h (0 Bft) - - -1,6 C 7,2 C
_ Max-Zeit 13:41 05:36 00:36 00:01 23:06 - - 13:26 13:41
Maximum _ 17,8 C 76 % 1023,1 hPa 0,0 l/m 18,4 km/h
O-NO (3 Bft)
- - 7,5 C 17,8 C
Durchschnitt _ 12,6 C 59 % 1022,0 hPa #0,0 l/m 5,2 km/h (1 Bft) O-NO - 4,5 C 12,6 C
(c) by David Heller